Portada
METAR-TAF:

METAR-TAF

Aeropuertos :

Aeropuerto Internacional Nelson Mandela

Praia, Cabo Verde

latitud: 14-55-27N, longitud: 23-29-38W, altitud: 70 m

Observación

El informe se hizo hace 47 minutos, a las 04:00 UTC
Viento 4 kt del noroeste
Temperatura 20°C
Humedad 78%
Presión 1015 hPa
Visibilidad 10 km o más
Escasas nubes a una altura de 1500 ft

METAR: GVNP 250400Z 32004KT 9999 FEW015 20/16 Q1015 NOSIG

Hora: 03:47 (04:47 UTC)

Pronóstico

El informe se hizo hace 5 horas y 47 minutos, a las 23:00 UTC
Pronóstico válido del 25 a las 00 UTC al 26 a las 06 UTC
Viento 12 kt del norte-noreste
Visibilidad 10 km o más
Escasas nubes a una altura de 1500 ft
Temporalmente
del 25 a las 00 UTC al 25 a las 06 UTC
Escasas nubes a una altura de 1500 ft
Nubes dispersas a una altura de 1800 ft

TAF: GVNP 242300Z 2500/2606 02012KT 9999 FEW015 TEMPO 2500/2506 FEW015 SCT018

Observaciones y pronósticos meteorológicos de más de 4000 aeropuertos (mensajes METAR y TAF).

Los puntos amarillos y rojos representan las estaciones disponibles.

Ponga el ratón en el punto deseado para ver el nombre de la estación.

Haga clic para ver las observaciones y los pronósticos meteorológicos.

Para cambiar el mapa : haga clic en los botones verdes con una cruz de color negro para hacer un zoom, en el botón verde con un guión para alejar o en las flechas verdes para mapas adyacentes.


METAR-TAF: